sensor_id;sensor_type;location;lat;lon;timestamp;P1;durP1;ratioP1;P2;durP2;ratioP2
9842;SDS011;4960;48.736;9.108;2023-02-13T00:00:07;0.30;;;0.30;;
9842;SDS011;4960;48.736;9.108;2023-02-13T00:02:35;0.30;;;0.30;;
9842;SDS011;4960;48.736;9.108;2023-02-13T00:05:02;0.20;;;0.20;;
9842;SDS011;4960;48.736;9.108;2023-02-13T00:07:29;0.30;;;0.30;;
9842;SDS011;4960;48.736;9.108;2023-02-13T00:09:56;0.20;;;0.20;;
9842;SDS011;4960;48.736;9.108;2023-02-13T00:12:24;0.30;;;0.30;;
9842;SDS011;4960;48.736;9.108;2023-02-13T00:14:52;0.30;;;0.30;;
9842;SDS011;4960;48.736;9.108;2023-02-13T00:17:19;0.40;;;0.40;;
9842;SDS011;4960;48.736;9.108;2023-02-13T00:19:47;0.30;;;0.30;;
9842;SDS011;4960;48.736;9.108;2023-02-13T00:22:14;0.40;;;0.40;;
9842;SDS011;4960;48.736;9.108;2023-02-13T00:24:41;0.30;;;0.30;;
9842;SDS011;4960;48.736;9.108;2023-02-13T00:27:09;0.30;;;0.30;;
9842;SDS011;4960;48.736;9.108;2023-02-13T00:29:36;0.30;;;0.30;;
9842;SDS011;4960;48.736;9.108;2023-02-13T00:32:04;0.33;;;0.33;;
9842;SDS011;4960;48.736;9.108;2023-02-13T00:34:32;0.30;;;0.30;;
9842;SDS011;4960;48.736;9.108;2023-02-13T00:36:59;0.37;;;0.37;;
9842;SDS011;4960;48.736;9.108;2023-02-13T00:39:26;0.20;;;0.20;;
9842;SDS011;4960;48.736;9.108;2023-02-13T00:41:53;0.30;;;0.30;;
9842;SDS011;4960;48.736;9.108;2023-02-13T00:44:20;0.30;;;0.30;;
9842;SDS011;4960;48.736;9.108;2023-02-13T00:46:47;0.20;;;0.20;;
9842;SDS011;4960;48.736;9.108;2023-02-13T00:49:16;0.30;;;0.30;;
9842;SDS011;4960;48.736;9.108;2023-02-13T00:51:43;0.30;;;0.30;;
9842;SDS011;4960;48.736;9.108;2023-02-13T00:54:10;0.30;;;0.30;;
9842;SDS011;4960;48.736;9.108;2023-02-13T00:56:37;0.20;;;0.20;;
9842;SDS011;4960;48.736;9.108;2023-02-13T00:59:05;0.30;;;0.30;;
9842;SDS011;4960;48.736;9.108;2023-02-13T01:01:32;0.30;;;0.30;;
9842;SDS011;4960;48.736;9.108;2023-02-13T01:03:59;0.30;;;0.30;;
9842;SDS011;4960;48.736;9.108;2023-02-13T01:06:27;0.30;;;0.30;;
9842;SDS011;4960;48.736;9.108;2023-02-13T01:08:55;0.30;;;0.30;;
9842;SDS011;4960;48.736;9.108;2023-02-13T01:11:22;0.20;;;0.20;;
9842;SDS011;4960;48.736;9.108;2023-02-13T01:13:49;0.30;;;0.30;;
9842;SDS011;4960;48.736;9.108;2023-02-13T01:16:16;0.30;;;0.30;;
9842;SDS011;4960;48.736;9.108;2023-02-13T01:18:43;0.30;;;0.30;;
9842;SDS011;4960;48.736;9.108;2023-02-13T01:21:14;0.20;;;0.20;;
9842;SDS011;4960;48.736;9.108;2023-02-13T01:23:43;0.40;;;0.40;;
9842;SDS011;4960;48.736;9.108;2023-02-13T01:26:15;0.30;;;0.30;;
9842;SDS011;4960;48.736;9.108;2023-02-13T01:28:42;0.30;;;0.30;;
9842;SDS011;4960;48.736;9.108;2023-02-13T01:31:09;0.40;;;0.40;;
9842;SDS011;4960;48.736;9.108;2023-02-13T01:33:37;0.30;;;0.30;;
9842;SDS011;4960;48.736;9.108;2023-02-13T01:36:05;0.30;;;0.30;;
9842;SDS011;4960;48.736;9.108;2023-02-13T01:38:32;0.40;;;0.40;;
9842;SDS011;4960;48.736;9.108;2023-02-13T01:41:00;0.40;;;0.40;;
9842;SDS011;4960;48.736;9.108;2023-02-13T01:43:41;0.40;;;0.40;;
9842;SDS011;4960;48.736;9.108;2023-02-13T01:46:09;0.30;;;0.30;;
9842;SDS011;4960;48.736;9.108;2023-02-13T01:48:37;0.30;;;0.30;;
9842;SDS011;4960;48.736;9.108;2023-02-13T01:51:05;0.30;;;0.30;;
9842;SDS011;4960;48.736;9.108;2023-02-13T01:53:34;0.40;;;0.40;;
9842;SDS011;4960;48.736;9.108;2023-02-13T01:56:07;0.40;;;0.40;;
9842;SDS011;4960;48.736;9.108;2023-02-13T01:58:36;0.27;;;0.27;;
9842;SDS011;4960;48.736;9.108;2023-02-13T02:01:04;0.40;;;0.40;;
9842;SDS011;4960;48.736;9.108;2023-02-13T02:03:34;0.30;;;0.30;;
9842;SDS011;4960;48.736;9.108;2023-02-13T02:06:02;0.30;;;0.30;;
9842;SDS011;4960;48.736;9.108;2023-02-13T02:08:30;0.40;;;0.40;;
9842;SDS011;4960;48.736;9.108;2023-02-13T02:11:02;0.30;;;0.30;;
9842;SDS011;4960;48.736;9.108;2023-02-13T02:13:32;0.30;;;0.30;;
9842;SDS011;4960;48.736;9.108;2023-02-13T02:15:59;0.30;;;0.30;;
9842;SDS011;4960;48.736;9.108;2023-02-13T02:18:27;0.30;;;0.30;;
9842;SDS011;4960;48.736;9.108;2023-02-13T02:26:36;0.30;;;0.30;;
9842;SDS011;4960;48.736;9.108;2023-02-13T02:29:16;0.37;;;0.37;;
9842;SDS011;4960;48.736;9.108;2023-02-13T02:31:51;0.40;;;0.40;;
9842;SDS011;4960;48.736;9.108;2023-02-13T02:34:24;0.40;;;0.40;;
9842;SDS011;4960;48.736;9.108;2023-02-13T02:37:01;0.40;;;0.40;;
9842;SDS011;4960;48.736;9.108;2023-02-13T02:39:34;0.30;;;0.30;;
9842;SDS011;4960;48.736;9.108;2023-02-13T02:42:07;0.40;;;0.40;;
9842;SDS011;4960;48.736;9.108;2023-02-13T02:44:37;0.30;;;0.30;;
9842;SDS011;4960;48.736;9.108;2023-02-13T02:47:10;0.40;;;0.40;;
9842;SDS011;4960;48.736;9.108;2023-02-13T02:50:00;0.30;;;0.30;;
9842;SDS011;4960;48.736;9.108;2023-02-13T02:52:32;0.40;;;0.40;;
9842;SDS011;4960;48.736;9.108;2023-02-13T02:55:03;0.30;;;0.30;;
9842;SDS011;4960;48.736;9.108;2023-02-13T02:57:35;0.40;;;0.40;;
9842;SDS011;4960;48.736;9.108;2023-02-13T03:00:22;0.30;;;0.30;;
9842;SDS011;4960;48.736;9.108;2023-02-13T03:03:10;0.40;;;0.40;;
9842;SDS011;4960;48.736;9.108;2023-02-13T03:05:56;0.40;;;0.40;;
9842;SDS011;4960;48.736;9.108;2023-02-13T03:08:38;0.50;;;0.50;;
9842;SDS011;4960;48.736;9.108;2023-02-13T03:11:22;0.30;;;0.30;;
9842;SDS011;4960;48.736;9.108;2023-02-13T03:14:08;0.30;;;0.30;;
9842;SDS011;4960;48.736;9.108;2023-02-13T03:16:36;0.40;;;0.40;;
9842;SDS011;4960;48.736;9.108;2023-02-13T03:19:24;0.40;;;0.40;;
9842;SDS011;4960;48.736;9.108;2023-02-13T03:22:13;0.40;;;0.40;;
9842;SDS011;4960;48.736;9.108;2023-02-13T03:24:49;0.30;;;0.30;;
9842;SDS011;4960;48.736;9.108;2023-02-13T03:27:20;0.30;;;0.30;;
9842;SDS011;4960;48.736;9.108;2023-02-13T03:30:07;0.40;;;0.40;;
9842;SDS011;4960;48.736;9.108;2023-02-13T03:32:42;0.37;;;0.37;;
9842;SDS011;4960;48.736;9.108;2023-02-13T03:35:14;0.40;;;0.40;;
9842;SDS011;4960;48.736;9.108;2023-02-13T03:38:04;0.40;;;0.40;;
9842;SDS011;4960;48.736;9.108;2023-02-13T03:40:35;0.40;;;0.40;;
9842;SDS011;4960;48.736;9.108;2023-02-13T03:43:23;0.30;;;0.30;;
9842;SDS011;4960;48.736;9.108;2023-02-13T03:45:52;0.50;;;0.50;;
9842;SDS011;4960;48.736;9.108;2023-02-13T03:48:22;0.30;;;0.30;;
9842;SDS011;4960;48.736;9.108;2023-02-13T03:51:09;0.40;;;0.40;;
9842;SDS011;4960;48.736;9.108;2023-02-13T03:53:38;0.30;;;0.30;;
9842;SDS011;4960;48.736;9.108;2023-02-13T03:56:07;0.30;;;0.30;;
9842;SDS011;4960;48.736;9.108;2023-02-13T03:58:53;0.30;;;0.30;;
9842;SDS011;4960;48.736;9.108;2023-02-13T04:01:39;0.40;;;0.40;;
9842;SDS011;4960;48.736;9.108;2023-02-13T04:04:09;0.40;;;0.40;;
9842;SDS011;4960;48.736;9.108;2023-02-13T04:06:41;0.40;;;0.40;;
9842;SDS011;4960;48.736;9.108;2023-02-13T04:09:09;0.20;;;0.20;;
9842;SDS011;4960;48.736;9.108;2023-02-13T04:11:38;0.40;;;0.40;;
9842;SDS011;4960;48.736;9.108;2023-02-13T04:14:06;0.40;;;0.40;;
9842;SDS011;4960;48.736;9.108;2023-02-13T04:16:37;0.30;;;0.30;;
9842;SDS011;4960;48.736;9.108;2023-02-13T04:19:04;0.40;;;0.40;;
9842;SDS011;4960;48.736;9.108;2023-02-13T04:21:32;0.30;;;0.30;;
9842;SDS011;4960;48.736;9.108;2023-02-13T04:24:01;0.33;;;0.33;;
9842;SDS011;4960;48.736;9.108;2023-02-13T04:26:30;0.30;;;0.30;;
9842;SDS011;4960;48.736;9.108;2023-02-13T04:28:58;0.30;;;0.30;;
9842;SDS011;4960;48.736;9.108;2023-02-13T04:31:25;0.50;;;0.50;;
9842;SDS011;4960;48.736;9.108;2023-02-13T04:33:53;0.30;;;0.30;;
9842;SDS011;4960;48.736;9.108;2023-02-13T04:36:20;0.30;;;0.30;;
9842;SDS011;4960;48.736;9.108;2023-02-13T04:38:47;0.30;;;0.30;;
9842;SDS011;4960;48.736;9.108;2023-02-13T04:41:15;0.27;;;0.27;;
9842;SDS011;4960;48.736;9.108;2023-02-13T04:43:43;0.30;;;0.30;;
9842;SDS011;4960;48.736;9.108;2023-02-13T04:46:10;0.30;;;0.30;;
9842;SDS011;4960;48.736;9.108;2023-02-13T04:48:37;0.30;;;0.30;;
9842;SDS011;4960;48.736;9.108;2023-02-13T04:51:04;0.33;;;0.33;;
9842;SDS011;4960;48.736;9.108;2023-02-13T04:53:32;0.30;;;0.30;;
9842;SDS011;4960;48.736;9.108;2023-02-13T04:55:59;0.30;;;0.30;;
9842;SDS011;4960;48.736;9.108;2023-02-13T04:58:27;0.40;;;0.40;;
9842;SDS011;4960;48.736;9.108;2023-02-13T05:00:54;0.40;;;0.40;;
9842;SDS011;4960;48.736;9.108;2023-02-13T05:03:21;0.40;;;0.40;;
9842;SDS011;4960;48.736;9.108;2023-02-13T05:05:49;0.40;;;0.40;;
9842;SDS011;4960;48.736;9.108;2023-02-13T05:08:16;0.40;;;0.40;;
9842;SDS011;4960;48.736;9.108;2023-02-13T05:10:43;0.37;;;0.37;;
9842;SDS011;4960;48.736;9.108;2023-02-13T05:13:10;0.37;;;0.37;;
9842;SDS011;4960;48.736;9.108;2023-02-13T05:15:39;0.40;;;0.40;;
9842;SDS011;4960;48.736;9.108;2023-02-13T05:18:06;0.30;;;0.30;;
9842;SDS011;4960;48.736;9.108;2023-02-13T05:20:33;0.43;;;0.43;;
9842;SDS011;4960;48.736;9.108;2023-02-13T05:23:00;0.40;;;0.40;;
9842;SDS011;4960;48.736;9.108;2023-02-13T05:25:45;0.40;;;0.40;;
9842;SDS011;4960;48.736;9.108;2023-02-13T05:28:12;0.40;;;0.40;;
9842;SDS011;4960;48.736;9.108;2023-02-13T05:30:54;0.30;;;0.30;;
9842;SDS011;4960;48.736;9.108;2023-02-13T05:33:22;0.40;;;0.40;;
9842;SDS011;4960;48.736;9.108;2023-02-13T05:35:49;0.30;;;0.30;;
9842;SDS011;4960;48.736;9.108;2023-02-13T05:38:16;0.40;;;0.40;;
9842;SDS011;4960;48.736;9.108;2023-02-13T05:40:46;0.40;;;0.40;;
9842;SDS011;4960;48.736;9.108;2023-02-13T05:43:13;0.33;;;0.33;;
9842;SDS011;4960;48.736;9.108;2023-02-13T05:45:40;0.40;;;0.40;;
9842;SDS011;4960;48.736;9.108;2023-02-13T05:48:09;0.37;;;0.37;;
9842;SDS011;4960;48.736;9.108;2023-02-13T05:50:36;0.30;;;0.30;;
9842;SDS011;4960;48.736;9.108;2023-02-13T05:53:06;0.40;;;0.40;;
9842;SDS011;4960;48.736;9.108;2023-02-13T05:55:33;0.40;;;0.40;;
9842;SDS011;4960;48.736;9.108;2023-02-13T05:58:00;0.30;;;0.30;;
9842;SDS011;4960;48.736;9.108;2023-02-13T06:00:28;0.40;;;0.40;;
9842;SDS011;4960;48.736;9.108;2023-02-13T06:02:55;0.40;;;0.40;;
9842;SDS011;4960;48.736;9.108;2023-02-13T06:05:23;0.30;;;0.30;;
9842;SDS011;4960;48.736;9.108;2023-02-13T06:07:50;0.40;;;0.40;;
9842;SDS011;4960;48.736;9.108;2023-02-13T06:10:17;0.27;;;0.27;;
9842;SDS011;4960;48.736;9.108;2023-02-13T06:12:45;0.30;;;0.30;;
9842;SDS011;4960;48.736;9.108;2023-02-13T06:15:12;0.40;;;0.40;;
9842;SDS011;4960;48.736;9.108;2023-02-13T06:17:39;0.30;;;0.30;;
9842;SDS011;4960;48.736;9.108;2023-02-13T06:20:06;0.40;;;0.40;;
9842;SDS011;4960;48.736;9.108;2023-02-13T06:22:35;0.40;;;0.40;;
9842;SDS011;4960;48.736;9.108;2023-02-13T06:25:02;0.40;;;0.40;;
9842;SDS011;4960;48.736;9.108;2023-02-13T06:27:30;0.30;;;0.30;;
9842;SDS011;4960;48.736;9.108;2023-02-13T06:29:57;0.20;;;0.20;;
9842;SDS011;4960;48.736;9.108;2023-02-13T06:32:24;0.30;;;0.30;;
9842;SDS011;4960;48.736;9.108;2023-02-13T06:34:51;0.30;;;0.30;;
9842;SDS011;4960;48.736;9.108;2023-02-13T06:37:18;0.30;;;0.30;;
9842;SDS011;4960;48.736;9.108;2023-02-13T06:39:47;0.37;;;0.37;;
9842;SDS011;4960;48.736;9.108;2023-02-13T06:42:14;0.30;;;0.30;;
9842;SDS011;4960;48.736;9.108;2023-02-13T06:44:42;0.30;;;0.30;;
9842;SDS011;4960;48.736;9.108;2023-02-13T06:47:10;0.40;;;0.40;;
9842;SDS011;4960;48.736;9.108;2023-02-13T06:49:44;0.30;;;0.30;;
9842;SDS011;4960;48.736;9.108;2023-02-13T06:52:11;0.40;;;0.40;;
9842;SDS011;4960;48.736;9.108;2023-02-13T06:54:38;0.30;;;0.30;;
9842;SDS011;4960;48.736;9.108;2023-02-13T06:57:07;0.40;;;0.40;;
9842;SDS011;4960;48.736;9.108;2023-02-13T06:59:34;0.40;;;0.40;;
9842;SDS011;4960;48.736;9.108;2023-02-13T07:02:01;0.40;;;0.40;;
9842;SDS011;4960;48.736;9.108;2023-02-13T07:04:28;0.30;;;0.30;;
9842;SDS011;4960;48.736;9.108;2023-02-13T07:06:56;0.40;;;0.40;;
9842;SDS011;4960;48.736;9.108;2023-02-13T07:09:23;0.30;;;0.30;;
9842;SDS011;4960;48.736;9.108;2023-02-13T07:11:50;0.33;;;0.33;;
9842;SDS011;4960;48.736;9.108;2023-02-13T07:14:19;0.33;;;0.33;;
9842;SDS011;4960;48.736;9.108;2023-02-13T07:16:46;0.30;;;0.30;;
9842;SDS011;4960;48.736;9.108;2023-02-13T07:19:13;0.30;;;0.30;;
9842;SDS011;4960;48.736;9.108;2023-02-13T07:21:40;0.30;;;0.30;;
9842;SDS011;4960;48.736;9.108;2023-02-13T07:24:07;0.30;;;0.30;;
9842;SDS011;4960;48.736;9.108;2023-02-13T07:26:34;0.20;;;0.20;;
9842;SDS011;4960;48.736;9.108;2023-02-13T07:29:01;0.30;;;0.30;;
9842;SDS011;4960;48.736;9.108;2023-02-13T07:31:31;0.23;;;0.23;;
9842;SDS011;4960;48.736;9.108;2023-02-13T07:33:59;0.40;;;0.40;;
9842;SDS011;4960;48.736;9.108;2023-02-13T07:36:26;0.40;;;0.40;;
9842;SDS011;4960;48.736;9.108;2023-02-13T07:38:53;0.33;;;0.33;;
9842;SDS011;4960;48.736;9.108;2023-02-13T07:41:20;0.40;;;0.40;;
9842;SDS011;4960;48.736;9.108;2023-02-13T07:43:50;0.43;;;0.43;;
9842;SDS011;4960;48.736;9.108;2023-02-13T07:46:17;0.30;;;0.30;;
9842;SDS011;4960;48.736;9.108;2023-02-13T07:48:46;0.30;;;0.30;;
9842;SDS011;4960;48.736;9.108;2023-02-13T07:51:13;0.20;;;0.20;;
9842;SDS011;4960;48.736;9.108;2023-02-13T07:53:40;0.30;;;0.30;;
9842;SDS011;4960;48.736;9.108;2023-02-13T07:56:08;0.30;;;0.30;;
9842;SDS011;4960;48.736;9.108;2023-02-13T07:58:35;0.40;;;0.40;;
9842;SDS011;4960;48.736;9.108;2023-02-13T08:01:07;0.30;;;0.30;;
9842;SDS011;4960;48.736;9.108;2023-02-13T08:03:34;0.30;;;0.30;;
9842;SDS011;4960;48.736;9.108;2023-02-13T08:06:03;0.30;;;0.30;;
9842;SDS011;4960;48.736;9.108;2023-02-13T08:08:30;0.20;;;0.20;;
9842;SDS011;4960;48.736;9.108;2023-02-13T08:11:01;0.30;;;0.30;;
9842;SDS011;4960;48.736;9.108;2023-02-13T08:13:47;0.20;;;0.20;;
9842;SDS011;4960;48.736;9.108;2023-02-13T08:16:14;0.20;;;0.20;;
9842;SDS011;4960;48.736;9.108;2023-02-13T08:18:41;0.30;;;0.30;;
9842;SDS011;4960;48.736;9.108;2023-02-13T08:21:09;0.20;;;0.20;;
9842;SDS011;4960;48.736;9.108;2023-02-13T08:23:39;0.20;;;0.20;;
9842;SDS011;4960;48.736;9.108;2023-02-13T08:26:06;0.10;;;0.10;;
9842;SDS011;4960;48.736;9.108;2023-02-13T08:28:33;0.20;;;0.20;;
9842;SDS011;4960;48.736;9.108;2023-02-13T08:31:00;0.17;;;0.17;;
9842;SDS011;4960;48.736;9.108;2023-02-13T08:33:27;0.20;;;0.20;;
9842;SDS011;4960;48.736;9.108;2023-02-13T08:35:54;0.20;;;0.20;;
9842;SDS011;4960;48.736;9.108;2023-02-13T08:38:23;0.20;;;0.20;;
9842;SDS011;4960;48.736;9.108;2023-02-13T08:40:50;0.10;;;0.10;;
9842;SDS011;4960;48.736;9.108;2023-02-13T08:43:17;0.20;;;0.20;;
9842;SDS011;4960;48.736;9.108;2023-02-13T08:45:44;0.10;;;0.10;;
9842;SDS011;4960;48.736;9.108;2023-02-13T08:48:11;0.10;;;0.10;;
9842;SDS011;4960;48.736;9.108;2023-02-13T08:50:38;0.10;;;0.10;;
9842;SDS011;4960;48.736;9.108;2023-02-13T08:53:06;0.10;;;0.10;;
9842;SDS011;4960;48.736;9.108;2023-02-13T08:55:34;0.10;;;0.10;;
9842;SDS011;4960;48.736;9.108;2023-02-13T08:58:02;0.10;;;0.10;;
9842;SDS011;4960;48.736;9.108;2023-02-13T09:00:29;0.10;;;0.10;;
9842;SDS011;4960;48.736;9.108;2023-02-13T09:02:59;0.20;;;0.20;;
9842;SDS011;4960;48.736;9.108;2023-02-13T09:05:26;0.20;;;0.20;;
9842;SDS011;4960;48.736;9.108;2023-02-13T09:07:55;0.10;;;0.10;;
9842;SDS011;4960;48.736;9.108;2023-02-13T09:10:22;0.10;;;0.10;;
9842;SDS011;4960;48.736;9.108;2023-02-13T09:12:52;0.10;;;0.10;;
9842;SDS011;4960;48.736;9.108;2023-02-13T09:15:19;0.10;;;0.10;;
9842;SDS011;4960;48.736;9.108;2023-02-13T09:17:46;0.10;;;0.10;;
9842;SDS011;4960;48.736;9.108;2023-02-13T09:20:13;0.20;;;0.20;;
9842;SDS011;4960;48.736;9.108;2023-02-13T09:22:40;0.13;;;0.13;;
9842;SDS011;4960;48.736;9.108;2023-02-13T09:25:08;0.10;;;0.10;;
9842;SDS011;4960;48.736;9.108;2023-02-13T09:27:35;0.10;;;0.10;;
9842;SDS011;4960;48.736;9.108;2023-02-13T09:30:05;0.20;;;0.20;;
9842;SDS011;4960;48.736;9.108;2023-02-13T09:32:33;0.20;;;0.20;;
9842;SDS011;4960;48.736;9.108;2023-02-13T09:35:01;0.10;;;0.10;;
9842;SDS011;4960;48.736;9.108;2023-02-13T09:37:30;0.10;;;0.10;;
9842;SDS011;4960;48.736;9.108;2023-02-13T09:39:57;0.10;;;0.10;;
9842;SDS011;4960;48.736;9.108;2023-02-13T09:42:25;0.10;;;0.10;;
9842;SDS011;4960;48.736;9.108;2023-02-13T09:44:54;0.10;;;0.10;;
9842;SDS011;4960;48.736;9.108;2023-02-13T09:47:27;0.10;;;0.10;;
9842;SDS011;4960;48.736;9.108;2023-02-13T09:49:55;0.20;;;0.20;;
9842;SDS011;4960;48.736;9.108;2023-02-13T09:52:25;0.10;;;0.10;;
9842;SDS011;4960;48.736;9.108;2023-02-13T09:54:53;0.10;;;0.10;;
9842;SDS011;4960;48.736;9.108;2023-02-13T09:57:24;0.10;;;0.10;;
9842;SDS011;4960;48.736;9.108;2023-02-13T09:59:56;0.10;;;0.10;;
9842;SDS011;4960;48.736;9.108;2023-02-13T10:02:39;0.10;;;0.10;;
9842;SDS011;4960;48.736;9.108;2023-02-13T10:05:09;0.10;;;0.10;;
9842;SDS011;4960;48.736;9.108;2023-02-13T10:07:44;0.10;;;0.10;;
9842;SDS011;4960;48.736;9.108;2023-02-13T10:10:17;0.10;;;0.10;;
9842;SDS011;4960;48.736;9.108;2023-02-13T10:12:50;0.10;;;0.10;;
9842;SDS011;4960;48.736;9.108;2023-02-13T10:15:21;0.10;;;0.10;;
9842;SDS011;4960;48.736;9.108;2023-02-13T10:17:53;0.20;;;0.20;;
9842;SDS011;4960;48.736;9.108;2023-02-13T10:20:24;0.03;;;0.03;;
9842;SDS011;4960;48.736;9.108;2023-02-13T10:25:23;0.10;;;0.10;;
9842;SDS011;4960;48.736;9.108;2023-02-13T10:27:52;0.10;;;0.10;;
9842;SDS011;4960;48.736;9.108;2023-02-13T10:30:21;0.10;;;0.10;;
9842;SDS011;4960;48.736;9.108;2023-02-13T10:32:51;0.10;;;0.10;;
9842;SDS011;4960;48.736;9.108;2023-02-13T10:35:36;0.10;;;0.10;;
9842;SDS011;4960;48.736;9.108;2023-02-13T10:38:11;0.20;;;0.20;;
9842;SDS011;4960;48.736;9.108;2023-02-13T10:40:39;0.10;;;0.10;;
9842;SDS011;4960;48.736;9.108;2023-02-13T10:43:09;0.10;;;0.10;;
9842;SDS011;4960;48.736;9.108;2023-02-13T10:45:45;0.20;;;0.20;;
9842;SDS011;4960;48.736;9.108;2023-02-13T10:48:22;0.10;;;0.10;;
9842;SDS011;4960;48.736;9.108;2023-02-13T10:50:57;0.10;;;0.10;;
9842;SDS011;4960;48.736;9.108;2023-02-13T10:53:29;0.10;;;0.10;;
9842;SDS011;4960;48.736;9.108;2023-02-13T10:56:06;0.10;;;0.10;;
9842;SDS011;4960;48.736;9.108;2023-02-13T10:58:38;0.20;;;0.20;;
9842;SDS011;4960;48.736;9.108;2023-02-13T11:01:12;0.10;;;0.10;;
9842;SDS011;4960;48.736;9.108;2023-02-13T11:03:40;0.10;;;0.10;;
9842;SDS011;4960;48.736;9.108;2023-02-13T11:06:13;0.10;;;0.10;;
9842;SDS011;4960;48.736;9.108;2023-02-13T11:08:41;0.00;;;0.00;;
9842;SDS011;4960;48.736;9.108;2023-02-13T11:13:54;0.10;;;0.10;;
9842;SDS011;4960;48.736;9.108;2023-02-13T11:16:37;0.10;;;0.10;;
9842;SDS011;4960;48.736;9.108;2023-02-13T11:19:04;0.10;;;0.10;;
9842;SDS011;4960;48.736;9.108;2023-02-13T11:21:33;0.10;;;0.10;;
9842;SDS011;4960;48.736;9.108;2023-02-13T11:24:02;0.10;;;0.10;;
9842;SDS011;4960;48.736;9.108;2023-02-13T11:26:31;0.10;;;0.10;;
9842;SDS011;4960;48.736;9.108;2023-02-13T11:28:59;0.10;;;0.10;;
9842;SDS011;4960;48.736;9.108;2023-02-13T11:31:27;0.20;;;0.20;;
9842;SDS011;4960;48.736;9.108;2023-02-13T11:33:56;0.10;;;0.10;;
9842;SDS011;4960;48.736;9.108;2023-02-13T11:36:24;0.10;;;0.10;;
9842;SDS011;4960;48.736;9.108;2023-02-13T11:39:00;0.20;;;0.20;;
9842;SDS011;4960;48.736;9.108;2023-02-13T11:41:28;0.17;;;0.17;;
9842;SDS011;4960;48.736;9.108;2023-02-13T11:43:56;0.20;;;0.20;;
9842;SDS011;4960;48.736;9.108;2023-02-13T11:46:27;0.10;;;0.10;;
9842;SDS011;4960;48.736;9.108;2023-02-13T11:48:55;0.20;;;0.20;;
9842;SDS011;4960;48.736;9.108;2023-02-13T11:51:33;0.20;;;0.20;;
9842;SDS011;4960;48.736;9.108;2023-02-13T11:54:02;0.10;;;0.10;;
9842;SDS011;4960;48.736;9.108;2023-02-13T11:56:36;0.20;;;0.20;;
9842;SDS011;4960;48.736;9.108;2023-02-13T11:59:12;0.10;;;0.10;;
9842;SDS011;4960;48.736;9.108;2023-02-13T12:01:40;0.10;;;0.10;;
9842;SDS011;4960;48.736;9.108;2023-02-13T12:04:13;0.20;;;0.20;;
9842;SDS011;4960;48.736;9.108;2023-02-13T12:06:41;0.00;;;0.00;;
9842;SDS011;4960;48.736;9.108;2023-02-13T12:09:24;0.10;;;0.10;;
9842;SDS011;4960;48.736;9.108;2023-02-13T12:11:52;0.00;;;0.00;;
9842;SDS011;4960;48.736;9.108;2023-02-13T12:14:21;0.00;;;0.00;;
9842;SDS011;4960;48.736;9.108;2023-02-13T12:16:49;0.03;;;0.03;;
9842;SDS011;4960;48.736;9.108;2023-02-13T12:19:18;0.00;;;0.00;;
9842;SDS011;4960;48.736;9.108;2023-02-13T12:21:51;0.10;;;0.10;;
9842;SDS011;4960;48.736;9.108;2023-02-13T12:24:24;0.10;;;0.10;;
9842;SDS011;4960;48.736;9.108;2023-02-13T12:26:57;0.10;;;0.10;;
9842;SDS011;4960;48.736;9.108;2023-02-13T12:32:09;0.10;;;0.10;;
9842;SDS011;4960;48.736;9.108;2023-02-13T12:34:48;0.17;;;0.17;;
9842;SDS011;4960;48.736;9.108;2023-02-13T12:37:24;0.10;;;0.10;;
9842;SDS011;4960;48.736;9.108;2023-02-13T12:39:57;0.20;;;0.20;;
9842;SDS011;4960;48.736;9.108;2023-02-13T12:42:33;0.10;;;0.10;;
9842;SDS011;4960;48.736;9.108;2023-02-13T12:45:14;0.10;;;0.10;;
9842;SDS011;4960;48.736;9.108;2023-02-13T12:47:53;0.20;;;0.20;;
9842;SDS011;4960;48.736;9.108;2023-02-13T12:50:27;0.10;;;0.10;;
9842;SDS011;4960;48.736;9.108;2023-02-13T12:52:59;0.10;;;0.10;;
9842;SDS011;4960;48.736;9.108;2023-02-13T12:55:36;0.20;;;0.20;;
9842;SDS011;4960;48.736;9.108;2023-02-13T12:58:17;0.10;;;0.10;;
9842;SDS011;4960;48.736;9.108;2023-02-13T13:00:48;0.20;;;0.20;;
9842;SDS011;4960;48.736;9.108;2023-02-13T13:03:24;0.20;;;0.20;;
9842;SDS011;4960;48.736;9.108;2023-02-13T13:05:58;0.20;;;0.20;;
9842;SDS011;4960;48.736;9.108;2023-02-13T13:08:32;0.20;;;0.20;;
9842;SDS011;4960;48.736;9.108;2023-02-13T13:11:11;0.10;;;0.10;;
9842;SDS011;4960;48.736;9.108;2023-02-13T13:13:45;0.10;;;0.10;;
9842;SDS011;4960;48.736;9.108;2023-02-13T13:16:18;0.10;;;0.10;;
9842;SDS011;4960;48.736;9.108;2023-02-13T13:18:50;0.20;;;0.20;;
9842;SDS011;4960;48.736;9.108;2023-02-13T13:21:22;0.10;;;0.10;;
9842;SDS011;4960;48.736;9.108;2023-02-13T13:24:52;0.10;;;0.10;;
9842;SDS011;4960;48.736;9.108;2023-02-13T13:27:24;0.10;;;0.10;;
9842;SDS011;4960;48.736;9.108;2023-02-13T13:29:53;0.20;;;0.20;;
9842;SDS011;4960;48.736;9.108;2023-02-13T13:32:22;0.20;;;0.20;;
9842;SDS011;4960;48.736;9.108;2023-02-13T13:34:50;0.10;;;0.10;;
9842;SDS011;4960;48.736;9.108;2023-02-13T13:37:20;0.20;;;0.20;;
9842;SDS011;4960;48.736;9.108;2023-02-13T13:39:49;0.10;;;0.10;;
9842;SDS011;4960;48.736;9.108;2023-02-13T13:42:23;0.10;;;0.10;;
9842;SDS011;4960;48.736;9.108;2023-02-13T13:45:00;0.10;;;0.10;;
9842;SDS011;4960;48.736;9.108;2023-02-13T13:47:34;0.10;;;0.10;;
9842;SDS011;4960;48.736;9.108;2023-02-13T13:50:03;0.10;;;0.10;;
9842;SDS011;4960;48.736;9.108;2023-02-13T13:52:31;0.10;;;0.10;;
9842;SDS011;4960;48.736;9.108;2023-02-13T13:54:59;0.10;;;0.10;;
9842;SDS011;4960;48.736;9.108;2023-02-13T13:57:56;0.10;;;0.10;;
9842;SDS011;4960;48.736;9.108;2023-02-13T14:00:24;0.10;;;0.10;;
9842;SDS011;4960;48.736;9.108;2023-02-13T14:11:06;0.00;;;0.00;;
9842;SDS011;4960;48.736;9.108;2023-02-13T14:13:50;0.00;;;0.00;;
9842;SDS011;4960;48.736;9.108;2023-02-13T14:19:01;0.00;;;0.00;;
9842;SDS011;4960;48.736;9.108;2023-02-13T14:21:29;0.00;;;0.00;;
9842;SDS011;4960;48.736;9.108;2023-02-13T14:23:56;0.00;;;0.00;;
9842;SDS011;4960;48.736;9.108;2023-02-13T14:26:31;0.00;;;0.00;;
9842;SDS011;4960;48.736;9.108;2023-02-13T14:31:50;0.00;;;0.00;;
9842;SDS011;4960;48.736;9.108;2023-02-13T14:34:22;0.00;;;0.00;;
9842;SDS011;4960;48.736;9.108;2023-02-13T14:36:59;0.00;;;0.00;;
9842;SDS011;4960;48.736;9.108;2023-02-13T14:39:28;0.00;;;0.00;;
9842;SDS011;4960;48.736;9.108;2023-02-13T14:41:57;0.00;;;0.00;;
9842;SDS011;4960;48.736;9.108;2023-02-13T14:44:25;0.07;;;0.07;;
9842;SDS011;4960;48.736;9.108;2023-02-13T14:46:56;0.00;;;0.00;;
9842;SDS011;4960;48.736;9.108;2023-02-13T14:49:26;0.10;;;0.10;;
9842;SDS011;4960;48.736;9.108;2023-02-13T14:51:54;0.10;;;0.10;;
9842;SDS011;4960;48.736;9.108;2023-02-13T14:54:26;0.10;;;0.10;;
9842;SDS011;4960;48.736;9.108;2023-02-13T14:56:58;0.10;;;0.10;;
9842;SDS011;4960;48.736;9.108;2023-02-13T14:59:28;0.20;;;0.20;;
9842;SDS011;4960;48.736;9.108;2023-02-13T15:01:58;0.10;;;0.10;;
9842;SDS011;4960;48.736;9.108;2023-02-13T15:04:28;0.10;;;0.10;;
9842;SDS011;4960;48.736;9.108;2023-02-13T15:06:56;0.10;;;0.10;;
9842;SDS011;4960;48.736;9.108;2023-02-13T15:09:28;0.13;;;0.13;;
9842;SDS011;4960;48.736;9.108;2023-02-13T15:11:57;0.20;;;0.20;;
9842;SDS011;4960;48.736;9.108;2023-02-13T15:14:29;0.10;;;0.10;;
9842;SDS011;4960;48.736;9.108;2023-02-13T15:16:57;0.20;;;0.20;;
9842;SDS011;4960;48.736;9.108;2023-02-13T15:19:25;0.10;;;0.10;;
9842;SDS011;4960;48.736;9.108;2023-02-13T15:21:55;0.13;;;0.13;;
9842;SDS011;4960;48.736;9.108;2023-02-13T15:24:23;0.10;;;0.10;;
9842;SDS011;4960;48.736;9.108;2023-02-13T15:26:58;0.10;;;0.10;;
9842;SDS011;4960;48.736;9.108;2023-02-13T15:29:26;0.10;;;0.10;;
9842;SDS011;4960;48.736;9.108;2023-02-13T15:31:53;0.10;;;0.10;;
9842;SDS011;4960;48.736;9.108;2023-02-13T15:34:22;0.10;;;0.10;;
9842;SDS011;4960;48.736;9.108;2023-02-13T15:36:50;0.10;;;0.10;;
9842;SDS011;4960;48.736;9.108;2023-02-13T15:39:19;0.20;;;0.20;;
9842;SDS011;4960;48.736;9.108;2023-02-13T15:41:49;0.13;;;0.13;;
9842;SDS011;4960;48.736;9.108;2023-02-13T15:44:18;0.20;;;0.20;;
9842;SDS011;4960;48.736;9.108;2023-02-13T15:46:46;0.20;;;0.20;;
9842;SDS011;4960;48.736;9.108;2023-02-13T15:49:16;0.20;;;0.20;;
9842;SDS011;4960;48.736;9.108;2023-02-13T15:51:43;0.10;;;0.10;;
9842;SDS011;4960;48.736;9.108;2023-02-13T15:54:25;0.10;;;0.10;;
9842;SDS011;4960;48.736;9.108;2023-02-13T15:56:53;0.30;;;0.30;;
9842;SDS011;4960;48.736;9.108;2023-02-13T15:59:20;0.20;;;0.20;;
9842;SDS011;4960;48.736;9.108;2023-02-13T16:01:48;0.20;;;0.20;;